Time;durP1;ratioP1;P1;durP2;ratioP2;P2;SDS_P1;SDS_P2;PMS_P1;PMS_P2;Temp;Humidity;BMP_temperature;BMP_pressure;BME280_temperature;BME280_humidity;BME280_pressure;Samples;Min_cycle;Max_cycle;Signal;HPM_P1;HPM_P2
2023/06/03 00:00:24;;;;;;;8.40;7.10;;;;;;;10.30;96.65;99305.16;109427;1253;60819;-70
2023/06/03 00:03:14;;;;;;;7.20;6.10;;;;;;;10.26;98.06;99304.51;109384;1253;65814;-70
2023/06/03 00:05:40;;;;;;;9.70;6.30;;;;;;;10.20;98.53;99301.64;109411;1253;59113;-71
2023/06/03 00:08:07;;;;;;;8.60;5.80;;;;;;;10.15;99.22;99300.90;109433;1253;59019;-71
2023/06/03 00:10:34;;;;;;;7.80;5.70;;;;;;;10.09;99.90;99303.52;109413;1253;67453;-69
2023/06/03 00:13:01;;;;;;;7.00;6.30;;;;;;;10.06;100.00;99304.59;109421;1253;59825;-71
2023/06/03 00:15:27;;;;;;;11.80;6.80;;;;;;;10.02;100.00;99305.04;109410;1253;64165;-71
2023/06/03 00:17:54;;;;;;;12.20;7.20;;;;;;;9.96;100.00;99303.64;109365;1253;58993;-71
2023/06/03 00:20:21;;;;;;;6.80;6.10;;;;;;;9.91;100.00;99309.60;109471;1253;59307;-69
2023/06/03 00:22:47;;;;;;;7.50;6.50;;;;;;;9.86;100.00;99312.15;109407;1253;67076;-70
2023/06/03 00:25:14;;;;;;;10.30;7.20;;;;;;;9.82;100.00;99310.48;109447;1253;60886;-69
2023/06/03 00:27:41;;;;;;;8.20;7.40;;;;;;;9.75;100.00;99307.30;109422;1253;73397;-70
2023/06/03 00:30:08;;;;;;;8.10;7.30;;;;;;;9.69;100.00;99308.73;109406;1256;59244;-71
2023/06/03 00:32:35;;;;;;;7.90;7.10;;;;;;;9.63;100.00;99310.86;109415;1253;59108;-70
2023/06/03 00:35:02;;;;;;;11.10;8.30;;;;;;;9.57;100.00;99313.87;109457;1253;66967;-71
2023/06/03 00:37:28;;;;;;;11.30;9.70;;;;;;;9.51;100.00;99315.48;109437;1253;60227;-70
2023/06/03 00:39:55;;;;;;;14.50;11.50;;;;;;;9.44;100.00;99316.22;109410;1253;65172;-71
2023/06/03 00:42:22;;;;;;;15.80;11.70;;;;;;;9.38;100.00;99318.13;109141;1253;59024;-71
2023/06/03 00:44:48;;;;;;;14.50;10.30;;;;;;;9.36;100.00;99322.54;109438;1253;59114;-71
2023/06/03 00:47:18;;;;;;;14.20;9.90;;;;;;;9.30;100.00;99320.01;109417;1253;67297;-71
2023/06/03 00:49:45;;;;;;;11.40;9.40;;;;;;;9.25;100.00;99324.55;109427;1253;60162;-71
2023/06/03 00:52:14;;;;;;;11.20;8.40;;;;;;;9.18;100.00;99327.61;109438;1253;64935;-70
2023/06/03 00:54:41;;;;;;;8.60;7.70;;;;;;;9.11;100.00;99326.23;109434;1253;59008;-69
2023/06/03 00:57:08;;;;;;;10.50;7.00;;;;;;;9.06;100.00;99327.59;109414;1253;59630;-71
2023/06/03 00:59:35;;;;;;;7.90;6.90;;;;;;;9.00;100.00;99325.76;109012;1253;66006;-70
2023/06/03 01:02:02;;;;;;;11.70;7.10;;;;;;;8.98;100.00;99328.88;109055;1253;59836;-71
2023/06/03 01:04:29;;;;;;;7.30;6.50;;;;;;;8.96;100.00;99334.70;109394;1253;64071;-71
2023/06/03 01:07:26;;;;;;;7.00;6.00;;;;;;;8.93;100.00;99335.04;109415;1253;59040;-70
2023/06/03 01:10:19;;;;;;;9.30;6.40;;;;;;;8.89;100.00;99336.67;109135;1253;59009;-71
2023/06/03 01:12:46;;;;;;;8.60;6.70;;;;;;;8.87;100.00;99334.11;109436;1253;65976;-70
2023/06/03 01:15:20;;;;;;;8.10;6.50;;;;;;;8.84;100.00;99331.46;109463;1253;61115;-70
2023/06/03 01:17:50;;;;;;;9.00;6.80;;;;;;;8.80;100.00;99335.02;109397;1253;65079;-71
2023/06/03 01:20:17;;;;;;;9.80;6.70;;;;;;;8.79;100.00;99337.17;109452;1253;58940;-69
2023/06/03 01:22:51;;;;;;;9.20;6.50;;;;;;;8.81;100.00;99341.00;109401;1253;59100;-69
2023/06/03 01:25:20;;;;;;;9.10;6.40;;;;;;;8.80;100.00;99339.27;109444;1253;67033;-70
2023/06/03 01:27:48;;;;;;;8.40;6.20;;;;;;;8.77;100.00;99341.21;109419;1253;61326;-70
2023/06/03 01:30:19;;;;;;;6.80;6.00;;;;;;;8.71;100.00;99339.02;109373;1253;64074;-70
2023/06/03 01:32:48;;;;;;;8.50;5.80;;;;;;;8.66;100.00;99342.13;109421;1253;58995;-70
2023/06/03 01:35:16;;;;;;;7.70;6.50;;;;;;;8.62;100.00;99343.98;109493;1253;59172;-70
2023/06/03 01:37:43;;;;;;;9.20;6.50;;;;;;;8.55;100.00;99341.81;109209;1253;64706;-71
2023/06/03 01:40:12;;;;;;;7.50;6.50;;;;;;;8.50;100.00;99338.35;109378;1253;59752;-70
2023/06/03 01:42:39;;;;;;;7.70;6.90;;;;;;;8.47;100.00;99339.77;109401;1253;65166;-69
2023/06/03 01:45:06;;;;;;;8.50;6.40;;;;;;;8.45;100.00;99339.56;109434;1253;59226;-69
2023/06/03 01:47:34;;;;;;;7.40;6.70;;;;;;;8.43;100.00;99342.86;109421;1258;58954;-70
2023/06/03 01:50:00;;;;;;;8.50;6.10;;;;;;;8.42;100.00;99342.01;109468;1253;65673;-70
2023/06/03 01:52:27;;;;;;;8.10;7.20;;;;;;;8.39;100.00;99339.66;109438;1253;61154;-69
2023/06/03 01:54:53;;;;;;;8.50;7.30;;;;;;;8.38;100.00;99339.88;109410;1253;65125;-70
2023/06/03 01:57:20;;;;;;;11.20;7.70;;;;;;;8.37;100.00;99339.38;109409;1253;58953;-70
2023/06/03 01:59:47;;;;;;;10.70;7.70;;;;;;;8.36;100.00;99343.16;109437;1253;59087;-70
2023/06/03 02:02:13;;;;;;;10.00;7.70;;;;;;;8.35;100.00;99341.81;109464;1253;67112;-71
2023/06/03 02:04:44;;;;;;;9.70;7.80;;;;;;;8.35;100.00;99341.46;109491;1253;60100;-70
2023/06/03 02:07:11;;;;;;;9.80;7.70;;;;;;;8.34;100.00;99338.84;109412;1253;64732;-70
2023/06/03 02:09:38;;;;;;;11.60;8.20;;;;;;;8.31;100.00;99338.65;109428;1253;58988;-70
2023/06/03 02:12:05;;;;;;;10.90;8.90;;;;;;;8.28;100.00;99342.72;109454;1253;59085;-71
2023/06/03 02:14:34;;;;;;;9.20;7.90;;;;;;;8.24;100.00;99341.66;109433;1253;65988;-71
2023/06/03 02:17:01;;;;;;;9.40;8.40;;;;;;;8.20;100.00;99341.54;109078;1253;60869;-71
2023/06/03 02:19:28;;;;;;;10.60;8.00;;;;;;;8.16;100.00;99346.52;109421;1253;63725;-71
2023/06/03 02:21:58;;;;;;;10.10;8.50;;;;;;;8.13;100.00;99351.59;109461;1253;59046;-70
2023/06/03 02:24:28;;;;;;;10.50;8.70;;;;;;;8.12;100.00;99355.73;109442;1253;59101;-69
2023/06/03 02:26:56;;;;;;;11.00;8.30;;;;;;;8.08;100.00;99359.64;109432;1253;66085;-70
2023/06/03 02:29:25;;;;;;;11.50;8.30;;;;;;;8.05;100.00;99364.41;109414;1253;60729;-69
2023/06/03 02:31:53;;;;;;;12.50;8.50;;;;;;;8.02;100.00;99362.95;109432;1253;65070;-71
2023/06/03 02:34:21;;;;;;;13.50;8.70;;;;;;;8.00;100.00;99366.77;109435;1253;58972;-71
2023/06/03 02:36:49;;;;;;;11.40;7.80;;;;;;;7.97;100.00;99371.34;109451;1253;59219;-71
2023/06/03 02:39:16;;;;;;;10.00;8.00;;;;;;;7.93;100.00;99374.90;109461;1253;67143;-71
2023/06/03 02:41:44;;;;;;;10.60;8.10;;;;;;;7.90;100.00;99379.86;109445;1253;61122;-72
2023/06/03 02:44:12;;;;;;;8.00;7.20;;;;;;;7.86;100.00;99380.04;109411;1253;65017;-70
2023/06/03 02:46:39;;;;;;;9.30;7.60;;;;;;;7.83;100.00;99379.82;109382;1253;59315;-69
2023/06/03 02:49:07;;;;;;;9.30;8.00;;;;;;;7.79;100.00;99383.54;109395;1253;58989;-70
2023/06/03 02:51:36;;;;;;;9.20;7.90;;;;;;;7.77;100.00;99389.55;109466;1253;65867;-70
2023/06/03 02:54:03;;;;;;;11.70;8.20;;;;;;;7.72;100.00;99390.64;109395;1253;60791;-71
2023/06/03 02:56:30;;;;;;;12.90;8.70;;;;;;;7.68;100.00;99391.68;109051;1253;65145;-70
2023/06/03 02:58:56;;;;;;;13.10;9.50;;;;;;;7.68;100.00;99393.11;109443;1253;58979;-70
2023/06/03 03:01:23;;;;;;;10.60;8.20;;;;;;;7.69;100.00;99392.54;109396;1253;58982;-70
2023/06/03 03:03:50;;;;;;;11.80;9.50;;;;;;;7.71;100.00;99396.52;109421;1253;67119;-70
2023/06/03 03:06:21;;;;;;;11.20;8.90;;;;;;;7.75;100.00;99396.17;109465;1253;60982;-70
2023/06/03 03:08:48;;;;;;;14.00;11.00;;;;;;;7.77;100.00;99397.65;109407;1253;65146;-70
2023/06/03 03:11:15;;;;;;;13.20;11.80;;;;;;;7.80;100.00;99398.71;109478;1253;58930;-70
2023/06/03 03:13:42;;;;;;;10.90;9.80;;;;;;;7.87;100.00;99398.04;109130;1253;59116;-69
2023/06/03 03:16:10;;;;;;;12.20;11.00;;;;;;;7.95;100.00;99401.38;109425;1253;67144;-69
2023/06/03 03:18:37;;;;;;;13.20;9.10;;;;;;;8.01;100.00;99403.02;109429;1253;59800;-71
2023/06/03 03:21:04;;;;;;;12.60;10.10;;;;;;;8.07;100.00;99408.39;109021;1253;62792;-70
2023/06/03 03:23:31;;;;;;;14.00;10.20;;;;;;;8.14;100.00;99405.35;109420;1253;59432;-69
2023/06/03 03:26:02;;;;;;;10.90;9.30;;;;;;;8.73;100.00;99404.10;109442;1253;59045;-70
2023/06/03 03:28:29;;;;;;;10.80;8.80;;;;;;;9.81;100.00;99403.30;109434;1253;67154;-70
2023/06/03 03:30:56;;;;;;;13.70;8.80;;;;;;;10.70;100.00;99403.08;109449;1253;60892;-70
2023/06/03 03:33:23;;;;;;;10.50;8.00;;;;;;;11.53;100.00;99401.10;109427;1253;64167;-71
2023/06/03 03:35:50;;;;;;;9.00;7.70;;;;;;;12.29;100.00;99395.24;109410;1253;59036;-70
2023/06/03 03:38:17;;;;;;;8.90;7.70;;;;;;;12.99;100.00;99393.77;109452;1253;58905;-71
2023/06/03 03:40:44;;;;;;;9.70;7.60;;;;;;;13.56;99.88;99397.09;109464;1253;66778;-71
2023/06/03 03:43:16;;;;;;;8.60;7.50;;;;;;;14.13;95.99;99400.73;109474;1253;61255;-70
2023/06/03 03:45:43;;;;;;;9.40;7.10;;;;;;;14.64;91.34;99404.16;109400;1253;65139;-70
2023/06/03 03:48:13;;;;;;;8.50;6.80;;;;;;;15.11;87.10;99407.84;109409;1253;58957;-70
2023/06/03 03:50:45;;;;;;;9.50;7.50;;;;;;;15.54;83.79;99402.61;109419;1253;59269;-70
2023/06/03 03:53:17;;;;;;;7.90;7.00;;;;;;;15.99;81.82;99398.28;109448;1253;67435;-71
2023/06/03 03:55:47;;;;;;;8.60;7.00;;;;;;;16.39;78.73;99401.14;109032;1253;61139;-69
2023/06/03 03:58:34;;;;;;;10.00;7.10;;;;;;;16.76;76.36;99401.48;109149;1253;64963;-70
2023/06/03 04:01:09;;;;;;;8.10;7.30;;;;;;;17.22;74.96;99403.56;109011;1253;59066;-70
2023/06/03 04:03:40;;;;;;;9.20;7.50;;;;;;;17.69;72.63;99402.24;109442;1253;59044;-70
2023/06/03 04:06:10;;;;;;;7.60;6.80;;;;;;;18.10;71.39;99407.39;109440;1253;67245;-71
2023/06/03 04:08:45;;;;;;;8.70;6.50;;;;;;;18.45;69.10;99405.38;109044;1253;61190;-70
2023/06/03 04:11:27;;;;;;;7.50;6.50;;;;;;;18.70;67.17;99409.03;109017;1253;65171;-69
2023/06/03 04:13:55;;;;;;;8.80;6.40;;;;;;;18.78;65.14;99407.97;109398;1253;59755;-70
2023/06/03 04:16:46;;;;;;;7.10;6.50;;;;;;;18.82;64.65;99408.67;109394;1253;59002;-70
2023/06/03 04:19:17;;;;;;;9.30;7.50;;;;;;;18.90;64.08;99408.63;109140;1253;67200;-70
2023/06/03 04:21:44;;;;;;;8.40;7.40;;;;;;;19.12;63.92;99408.83;109403;1253;61172;-70
2023/06/03 04:24:11;;;;;;;7.90;6.50;;;;;;;19.52;62.67;99406.55;109399;1254;63078;-71
2023/06/03 04:26:38;;;;;;;6.30;5.80;;;;;;;19.54;60.24;99410.35;109450;1254;59315;-71
2023/06/03 04:29:06;;;;;;;8.10;6.20;;;;;;;19.42;59.86;99415.87;109442;1254;59041;-71
2023/06/03 04:31:32;;;;;;;6.50;5.90;;;;;;;19.29;59.61;99415.50;109446;1253;66805;-71
2023/06/03 04:33:59;;;;;;;7.10;5.90;;;;;;;19.31;58.93;99421.23;109456;1253;59783;-71
2023/06/03 04:36:26;;;;;;;8.70;6.10;;;;;;;19.37;58.39;99426.62;109430;1253;65238;-71
2023/06/03 04:38:53;;;;;;;7.20;6.30;;;;;;;19.44;58.04;99421.77;109404;1254;58963;-71
2023/06/03 04:41:19;;;;;;;7.70;6.00;;;;;;;19.63;58.17;99421.94;109435;1254;59065;-69
2023/06/03 04:43:47;;;;;;;7.00;5.60;;;;;;;19.85;57.28;99425.00;109411;1253;66176;-70
2023/06/03 04:46:14;;;;;;;8.10;6.80;;;;;;;19.89;56.74;99426.65;109434;1253;60909;-71
2023/06/03 04:48:41;;;;;;;7.00;6.30;;;;;;;19.98;55.80;99426.08;109415;1253;64208;-70
2023/06/03 04:51:08;;;;;;;6.80;6.20;;;;;;;19.89;55.72;99429.11;109375;1257;58909;-70
2023/06/03 04:53:36;;;;;;;6.10;5.50;;;;;;;19.96;55.77;99430.42;109447;1253;59076;-69
2023/06/03 04:56:05;;;;;;;5.70;5.20;;;;;;;20.21;55.50;99430.98;109446;1254;66867;-70
2023/06/03 04:58:32;;;;;;;8.10;5.90;;;;;;;20.46;55.68;99427.07;109427;1253;61166;-70
2023/06/03 05:00:59;;;;;;;9.20;5.60;;;;;;;20.84;55.57;99426.98;109398;1254;63730;-71
2023/06/03 05:03:26;;;;;;;7.60;5.00;;;;;;;21.12;54.56;99424.92;109402;1257;58937;-71
2023/06/03 05:05:52;;;;;;;6.70;5.50;;;;;;;21.31;54.31;99431.89;109415;1253;59154;-70
2023/06/03 05:08:19;;;;;;;7.50;5.40;;;;;;;21.50;53.32;99434.12;109410;1255;67117;-72
2023/06/03 05:10:46;;;;;;;5.90;5.30;;;;;;;21.57;53.03;99434.97;109436;1253;61461;-69
2023/06/03 05:13:13;;;;;;;6.80;5.00;;;;;;;21.73;52.88;99432.19;109441;1253;64849;-70
2023/06/03 05:15:40;;;;;;;6.10;5.50;;;;;;;22.00;52.37;99438.85;109393;1253;59013;-70
2023/06/03 05:18:06;;;;;;;6.40;5.30;;;;;;;22.09;51.19;99440.37;109468;1254;59401;-70
2023/06/03 05:20:33;;;;;;;6.60;5.90;;;;;;;21.93;50.28;99439.65;109001;1253;67130;-71
2023/06/03 05:22:59;;;;;;;7.60;6.00;;;;;;;21.65;50.24;99440.22;109174;1259;60238;-72
2023/06/03 05:25:27;;;;;;;7.70;5.80;;;;;;;21.58;50.21;99441.55;109405;1255;65089;-71
2023/06/03 05:27:53;;;;;;;8.90;5.50;;;;;;;21.53;50.04;99435.79;109417;1253;58901;-71
2023/06/03 05:30:20;;;;;;;6.10;5.50;;;;;;;21.47;49.92;99435.64;109476;1258;59053;-70
2023/06/03 05:32:47;;;;;;;8.80;6.40;;;;;;;21.45;49.98;99434.06;109416;1254;65989;-71
2023/06/03 05:35:13;;;;;;;7.60;5.70;;;;;;;21.43;49.94;99428.33;109416;1254;59859;-71
2023/06/03 05:37:40;;;;;;;7.40;6.20;;;;;;;21.44;49.79;99428.90;109452;1253;63929;-70
2023/06/03 05:40:07;;;;;;;6.20;5.00;;;;;;;21.45;49.44;99430.95;109385;1254;59045;-71
2023/06/03 05:42:34;;;;;;;8.80;5.80;;;;;;;21.51;49.45;99433.58;109136;1253;59104;-70
2023/06/03 05:45:00;;;;;;;8.00;6.30;;;;;;;21.58;49.01;99436.64;109415;1254;67082;-70
2023/06/03 05:47:28;;;;;;;6.50;5.80;;;;;;;21.48;48.99;99436.23;109428;1254;60119;-70
2023/06/03 05:49:55;;;;;;;6.10;4.50;;;;;;;21.44;48.80;99437.17;109383;1254;65097;-70
2023/06/03 05:52:22;;;;;;;5.10;4.60;;;;;;;21.53;48.77;99435.02;109376;1254;59116;-71
2023/06/03 05:54:48;;;;;;;8.30;4.80;;;;;;;21.71;48.56;99437.77;109430;1253;59040;-71
2023/06/03 05:57:15;;;;;;;5.50;4.40;;;;;;;21.85;48.50;99438.44;109423;1253;66150;-70
2023/06/03 05:59:43;;;;;;;5.90;4.50;;;;;;;22.13;48.89;99440.20;109421;1253;60740;-71
2023/06/03 06:02:10;;;;;;;5.40;3.70;;;;;;;22.47;48.17;99440.08;109417;1254;65169;-71
2023/06/03 06:04:36;;;;;;;3.70;3.30;;;;;;;22.57;46.75;99439.77;109409;1253;59050;-70
2023/06/03 06:07:03;;;;;;;4.80;3.50;;;;;;;22.37;45.51;99448.10;109430;1254;59052;-70
2023/06/03 06:09:29;;;;;;;7.20;3.70;;;;;;;22.16;45.47;99451.45;109395;1253;65915;-70
2023/06/03 06:11:56;;;;;;;5.10;3.70;;;;;;;22.07;44.98;99453.53;109427;1254;60979;-70
2023/06/03 06:14:23;;;;;;;6.10;3.60;;;;;;;21.95;44.80;99455.13;109014;1253;65263;-71
2023/06/03 06:16:51;;;;;;;4.30;3.70;;;;;;;21.85;45.11;99454.02;109396;1253;59039;-70
2023/06/03 06:19:18;;;;;;;5.40;3.80;;;;;;;21.86;45.32;99456.29;109037;1254;59043;-71
2023/06/03 06:21:47;;;;;;;5.60;4.20;;;;;;;21.97;45.02;99460.23;109402;1253;67058;-70
2023/06/03 06:24:15;;;;;;;5.30;3.10;;;;;;;22.00;44.44;99460.98;109444;1254;61189;-70
2023/06/03 06:26:41;;;;;;;3.90;3.00;;;;;;;21.98;44.00;99460.60;109395;1254;65125;-71
2023/06/03 06:29:08;;;;;;;4.60;3.20;;;;;;;21.87;43.38;99456.73;109384;1254;59069;-70
2023/06/03 06:31:35;;;;;;;6.10;3.80;;;;;;;21.75;43.12;99461.40;109388;1254;59330;-70
2023/06/03 06:34:02;;;;;;;4.70;3.50;;;;;;;21.54;42.58;99459.33;109369;1254;65997;-71
2023/06/03 06:36:44;;;;;;;4.90;3.20;;;;;;;21.37;43.25;99456.77;109442;1253;60821;-71
2023/06/03 06:39:31;;;;;;;6.00;3.30;;;;;;;21.38;43.06;99459.77;109286;1254;63768;-71
2023/06/03 06:42:10;;;;;;;4.10;3.10;;;;;;;21.35;42.95;99462.02;109296;1254;134973;-71
2023/06/03 06:45:13;;;;;;;3.90;3.00;;;;;;;21.27;42.80;99460.16;109024;1254;59060;-71
2023/06/03 06:47:41;;;;;;;5.30;3.20;;;;;;;21.26;43.18;99462.40;109405;1254;67204;-70
2023/06/03 06:50:15;;;;;;;4.40;3.50;;;;;;;21.29;43.04;99465.19;109383;1254;60702;-71
2023/06/03 06:52:42;;;;;;;3.20;2.90;;;;;;;21.32;43.46;99466.36;109363;1254;64898;-70
2023/06/03 06:55:19;;;;;;;5.40;3.50;;;;;;;21.43;42.93;99470.89;109392;1254;58965;-71
2023/06/03 06:57:45;;;;;;;3.40;2.90;;;;;;;21.36;42.68;99470.21;109413;1253;59039;-70
2023/06/03 07:00:12;;;;;;;6.30;3.20;;;;;;;21.29;42.64;99468.41;109072;1254;65789;-71
2023/06/03 07:02:40;;;;;;;5.10;3.20;;;;;;;21.28;42.69;99468.91;109393;1254;61267;-71
2023/06/03 07:05:07;;;;;;;4.00;3.40;;;;;;;21.28;42.78;99473.22;109361;1254;65082;-71
2023/06/03 07:07:34;;;;;;;6.10;3.70;;;;;;;21.33;42.93;99473.83;109350;1254;58994;-71
2023/06/03 07:10:02;;;;;;;4.30;3.10;;;;;;;21.49;42.71;99477.19;109421;1254;58925;-71
2023/06/03 07:12:29;;;;;;;3.80;3.40;;;;;;;21.48;42.71;99480.21;109384;1254;67104;-71
2023/06/03 07:14:56;;;;;;;6.70;3.80;;;;;;;21.01;42.50;99487.45;109417;1254;60709;-71
2023/06/03 07:17:22;;;;;;;6.10;4.00;;;;;;;20.77;43.01;99486.61;109386;1253;64289;-72
2023/06/03 07:19:49;;;;;;;8.20;3.80;;;;;;;20.93;43.43;99485.87;108986;1254;60030;-71
2023/06/03 07:22:16;;;;;;;7.80;4.20;;;;;;;20.81;43.70;99487.45;109395;1254;58956;-70
2023/06/03 07:24:45;;;;;;;5.00;3.60;;;;;;;20.36;44.18;99491.26;109426;1254;67054;-71
2023/06/03 07:27:27;;;;;;;10.90;4.10;;;;;;;20.22;44.39;99491.75;109389;1254;59759;-70
2023/06/03 07:29:58;;;;;;;7.10;3.90;;;;;;;19.95;44.87;99496.92;109386;1254;65416;-71
2023/06/03 07:32:25;;;;;;;4.90;4.10;;;;;;;19.74;45.32;99497.33;109405;1254;59038;-71
2023/06/03 07:34:52;;;;;;;6.50;4.50;;;;;;;19.53;45.58;99500.43;109368;1254;58973;-70
2023/06/03 07:37:18;;;;;;;9.10;4.50;;;;;;;19.50;46.23;99498.73;109408;1253;66973;-70
2023/06/03 07:39:45;;;;;;;5.50;3.80;;;;;;;19.44;46.22;99502.65;109374;1254;61260;-71
2023/06/03 07:42:20;;;;;;;3.90;3.50;;;;;;;19.51;46.43;99506.19;109397;1254;65315;-70
2023/06/03 07:44:48;;;;;;;8.80;3.80;;;;;;;19.64;46.42;99506.23;109326;1254;59044;-70
2023/06/03 07:47:17;;;;;;;4.90;3.80;;;;;;;19.61;46.36;99510.42;109375;1254;59053;-71
2023/06/03 07:49:45;;;;;;;5.00;3.70;;;;;;;19.49;46.11;99505.85;109355;1254;67144;-71
2023/06/03 07:52:16;;;;;;;6.20;3.70;;;;;;;19.43;46.41;99509.09;109401;1254;60237;-70
2023/06/03 07:54:43;;;;;;;4.70;3.70;;;;;;;19.50;46.59;99508.44;109367;1254;64902;-72
2023/06/03 07:57:12;;;;;;;5.10;4.10;;;;;;;19.57;46.41;99507.25;109386;1253;59042;-70
2023/06/03 07:59:48;;;;;;;7.50;3.60;;;;;;;19.59;46.32;99505.55;109405;1254;59048;-71
2023/06/03 08:02:15;;;;;;;5.90;4.60;;;;;;;19.79;46.94;99503.20;109118;1253;65279;-71
2023/06/03 08:04:41;;;;;;;5.50;4.00;;;;;;;19.99;46.44;99500.71;109359;1254;61000;-70
2023/06/03 08:07:09;;;;;;;7.10;3.50;;;;;;;20.08;46.36;99501.01;109375;1254;65092;-71
2023/06/03 08:09:36;;;;;;;7.20;3.80;;;;;;;20.25;45.90;99502.02;109380;1253;58977;-71
2023/06/03 08:12:06;;;;;;;7.20;4.10;;;;;;;20.42;45.50;99501.45;109386;1254;59038;-70
2023/06/03 08:14:34;;;;;;;6.00;3.40;;;;;;;20.57;46.02;99499.05;109419;1254;67177;-70
2023/06/03 08:17:06;;;;;;;7.30;3.70;;;;;;;20.72;45.39;99500.83;109390;1254;61296;-71
2023/06/03 08:19:34;;;;;;;6.40;3.50;;;;;;;20.62;44.85;99505.64;109383;1253;65204;-70
2023/06/03 08:22:00;;;;;;;4.00;3.60;;;;;;;20.76;45.20;99505.13;109373;1253;59038;-71
2023/06/03 08:24:27;;;;;;;4.30;3.40;;;;;;;20.98;44.31;99501.73;109343;1253;59209;-71
2023/06/03 08:26:54;;;;;;;4.20;3.10;;;;;;;21.12;44.32;99497.80;109420;1253;66104;-70
2023/06/03 08:29:20;;;;;;;5.80;3.50;;;;;;;21.31;43.69;99504.70;109377;1253;61075;-70
2023/06/03 08:31:47;;;;;;;6.40;3.50;;;;;;;21.46;43.43;99506.09;109063;1253;63914;-71
2023/06/03 08:34:14;;;;;;;4.00;3.60;;;;;;;21.46;43.19;99509.89;109348;1253;59113;-71
2023/06/03 08:36:41;;;;;;;5.20;4.00;;;;;;;21.49;43.12;99507.43;109391;1254;59037;-71
2023/06/03 08:39:08;;;;;;;7.80;3.00;;;;;;;21.46;41.85;99514.20;109370;1253;67177;-70
2023/06/03 08:41:42;;;;;;;4.20;3.00;;;;;;;21.11;41.44;99517.82;109420;1254;61248;-71
2023/06/03 08:44:32;;;;;;;4.50;3.20;;;;;;;20.69;41.64;99518.42;109367;1253;65280;-69
2023/06/03 08:47:12;;;;;;;5.10;3.50;;;;;;;20.34;41.90;99518.85;109053;1253;59050;-70
2023/06/03 08:49:59;;;;;;;6.80;2.80;;;;;;;20.00;42.19;99522.77;109399;1253;58951;-70
2023/06/03 08:52:30;;;;;;;3.60;3.20;;;;;;;19.81;42.77;99522.75;109352;1253;67380;-71
2023/06/03 08:55:00;;;;;;;5.80;3.50;;;;;;;19.60;42.70;99525.66;109408;1253;60091;-70
2023/06/03 08:57:35;;;;;;;4.70;3.30;;;;;;;19.33;42.73;99530.77;109362;1253;64085;-72
2023/06/03 09:00:05;;;;;;;5.20;3.60;;;;;;;19.15;43.18;99524.90;109357;1253;58939;-70
2023/06/03 09:02:32;;;;;;;;;;;;;;;19.05;43.45;99522.59;109375;1253;58965;-72
2023/06/03 09:05:03;;;;;;;4.00;2.80;;;;;;;18.97;43.40;99524.76;109399;1253;65925;-71
2023/06/03 09:07:31;;;;;;;3.00;2.30;;;;;;;18.92;42.80;99523.08;109036;1254;59884;-70
2023/06/03 09:10:00;;;;;;;4.20;2.40;;;;;;;18.81;42.57;99523.00;109066;1254;65304;-70
2023/06/03 09:12:27;;;;;;;4.30;2.50;;;;;;;18.75;42.97;99527.20;109354;1253;59127;-71
2023/06/03 09:14:56;;;;;;;3.60;2.70;;;;;;;18.81;42.52;99522.16;109404;1253;59042;-71
2023/06/03 09:17:24;;;;;;;6.40;3.00;;;;;;;18.71;42.41;99517.26;109375;1253;67178;-70
2023/06/03 09:19:52;;;;;;;4.20;2.80;;;;;;;18.73;42.84;99516.80;109402;1253;67406;-70
2023/06/03 09:22:19;;;;;;;2.80;2.50;;;;;;;18.88;42.29;99512.10;109391;1253;65319;-70
2023/06/03 09:24:46;;;;;;;3.20;2.60;;;;;;;19.11;42.11;99508.70;109354;1254;59023;-71
2023/06/03 09:27:13;;;;;;;3.10;2.20;;;;;;;19.22;42.15;99506.83;109392;1253;59018;-71
2023/06/03 09:29:41;;;;;;;2.40;1.90;;;;;;;19.18;41.59;99509.30;109415;1253;66102;-72
2023/06/03 09:32:08;;;;;;;5.20;2.10;;;;;;;19.25;41.01;99515.13;109397;1253;61237;-70
2023/06/03 09:34:36;;;;;;;3.30;2.20;;;;;;;19.35;40.66;99508.38;109353;1253;65103;-70
2023/06/03 09:37:11;;;;;;;6.00;2.10;;;;;;;19.53;41.10;99505.86;109360;1253;59480;-71
2023/06/03 09:39:38;;;;;;;4.50;2.00;;;;;;;19.59;40.77;99504.36;109397;1253;59005;-70
2023/06/03 09:42:05;;;;;;;4.30;2.90;;;;;;;19.47;40.28;99509.30;109445;1253;67381;-70
2023/06/03 09:44:40;;;;;;;3.70;2.40;;;;;;;19.31;40.36;99513.09;109367;1253;61251;-70
2023/06/03 09:47:08;;;;;;;4.50;2.10;;;;;;;18.86;39.97;99512.63;109050;1253;63826;-70
2023/06/03 09:49:35;;;;;;;24.40;3.30;;;;;;;18.48;40.46;99507.55;109338;1253;58949;-70
2023/06/03 09:52:06;;;;;;;2.70;2.00;;;;;;;18.49;40.75;99506.38;109057;1253;59232;-70
2023/06/03 09:54:34;;;;;;;4.40;2.20;;;;;;;18.31;40.37;99505.67;109340;1253;67052;-71
2023/06/03 09:57:13;;;;;;;5.00;2.00;;;;;;;18.21;40.29;99505.64;109405;1253;60052;-71
2023/06/03 09:59:43;;;;;;;3.90;2.10;;;;;;;18.12;40.54;99506.27;109345;1253;65380;-71
2023/06/03 10:02:11;;;;;;;3.40;2.10;;;;;;;18.18;40.79;99500.37;109384;1253;59016;-71
2023/06/03 10:04:41;;;;;;;1.80;1.70;;;;;;;18.25;40.61;99495.27;109396;1253;58880;-70
2023/06/03 10:07:07;;;;;;;2.70;2.00;;;;;;;18.26;40.79;99494.96;109353;1253;65661;-71
2023/06/03 10:09:35;;;;;;;2.70;2.00;;;;;;;18.23;40.38;99496.70;109353;1253;60248;-71
2023/06/03 10:12:02;;;;;;;3.50;2.00;;;;;;;18.21;40.61;99494.50;109372;1253;64143;-70
2023/06/03 10:14:29;;;;;;;3.10;2.20;;;;;;;18.20;40.66;99488.32;109350;1253;59003;-71
2023/06/03 10:17:09;;;;;;;3.10;2.50;;;;;;;18.29;40.94;99487.70;109361;1253;59071;-71
2023/06/03 10:19:40;;;;;;;4.40;1.80;;;;;;;18.51;40.89;99489.96;109382;1253;66252;-69
2023/06/03 10:22:09;;;;;;;3.00;1.70;;;;;;;18.66;40.29;99486.80;109401;1253;60220;-70
2023/06/03 10:24:42;;;;;;;4.00;2.80;;;;;;;18.74;40.19;99482.31;109343;1253;65116;-71
2023/06/03 10:27:13;;;;;;;1.90;1.70;;;;;;;18.89;40.56;99480.49;109397;1253;58988;-71
2023/06/03 10:29:40;;;;;;;3.50;1.70;;;;;;;19.11;40.28;99478.63;109117;1253;58978;-70
2023/06/03 10:32:10;;;;;;;4.00;1.90;;;;;;;19.21;39.96;99480.91;109364;1253;66781;-70
2023/06/03 10:34:41;;;;;;;3.30;1.90;;;;;;;19.21;39.61;99478.38;109382;1253;60361;-70
2023/06/03 10:37:09;;;;;;;7.80;2.30;;;;;;;19.22;40.13;99473.23;109293;1253;64283;-71
2023/06/03 10:39:36;;;;;;;3.50;2.10;;;;;;;19.39;40.23;99468.27;109343;1253;59029;-70
2023/06/03 10:42:09;;;;;;;4.80;2.30;;;;;;;19.54;40.19;99469.32;109323;1253;59042;-70
2023/06/03 10:44:36;;;;;;;3.60;2.10;;;;;;;19.72;40.07;99470.42;109406;1254;66944;-70
2023/06/03 10:47:13;;;;;;;2.40;2.10;;;;;;;19.80;39.49;99471.11;109068;1253;60248;-71
2023/06/03 10:49:46;;;;;;;2.90;1.70;;;;;;;19.85;39.06;99471.74;109383;1253;65254;-70
2023/06/03 10:52:37;;;;;;;2.80;1.80;;;;;;;19.86;38.67;99469.66;109373;1253;59468;-71
2023/06/03 10:55:21;;;;;;;2.80;1.70;;;;;;;19.87;38.84;99469.91;109365;1253;58855;-70
2023/06/03 10:57:56;;;;;;;3.30;2.10;;;;;;;19.95;39.01;99463.01;109403;1253;64862;-70
2023/06/03 11:00:52;;;;;;;4.40;1.80;;;;;;;20.05;38.61;99465.66;109363;1253;61306;-70
2023/06/03 11:03:21;;;;;;;4.10;1.70;;;;;;;19.96;37.92;99461.95;109355;1253;64145;-71
2023/06/03 11:05:48;;;;;;;3.90;2.20;;;;;;;19.87;38.13;99453.66;109335;1253;59046;-71
2023/06/03 11:08:52;;;;;;;4.60;1.90;;;;;;;19.93;38.29;99453.65;109370;1253;58867;-70
2023/06/03 11:11:41;;;;;;;4.50;1.90;;;;;;;19.86;37.91;99450.49;109358;1254;66156;-70
2023/06/03 11:14:09;;;;;;;3.30;1.30;;;;;;;19.81;37.00;99452.63;109363;1253;60068;-70
2023/06/03 11:16:59;;;;;;;2.50;1.80;;;;;;;19.61;36.44;99450.83;109352;1253;65178;-71
2023/06/03 11:19:32;;;;;;;3.90;1.70;;;;;;;19.42;36.84;99450.82;109347;1253;58996;-71
2023/06/03 11:21:59;;;;;;;4.80;1.80;;;;;;;19.43;37.43;99446.23;109384;1253;59062;-70
2023/06/03 11:24:38;;;;;;;3.10;1.70;;;;;;;19.58;37.81;99447.65;109362;1253;67226;-70
2023/06/03 11:29:43;;;;;;;3.70;1.60;;;;;;;19.77;37.98;99444.23;109325;1253;65081;-71
2023/06/03 11:32:21;;;;;;;4.20;2.00;;;;;;;19.83;37.03;99448.35;109292;1253;59057;-71
2023/06/03 11:34:50;;;;;;;4.00;2.20;;;;;;;19.73;37.08;99444.23;109122;1253;59063;-71
2023/06/03 11:37:19;;;;;;;4.60;1.70;;;;;;;19.72;37.14;99440.70;109332;1253;67239;-71